Terminal Aerodrome Forecast
Issued by NWS Topeka, KS

Home | Current Version | Previous Version | Text Only | Print | Product List | Glossary On
Versions: 1 2 3 4 5 6 7 8 9 10 11 12 13 14 15 16 17 18
000
FTUS43 KTOP 040520
TAFTOP
TAF
KTOP 040520Z 0406/0506 17007KT P6SM SCT150
     FM041700 18012G20KT P6SM FEW200
     FM042300 16008KT P6SM FEW200=

USA.gov is the U.S. government's official web portal to all federal, state and local government web resources and services.